sensor_id;sensor_type;location;lat;lon;timestamp;P1;durP1;ratioP1;P2;durP2;ratioP2
53271;SDS011;39160;48.580;7.756;2022-10-16T00:02:05;2.00;;;1.55;;
53271;SDS011;39160;48.580;7.756;2022-10-16T00:07:02;1.88;;;1.60;;
53271;SDS011;39160;48.580;7.756;2022-10-16T00:11:52;1.55;;;1.40;;
53271;SDS011;39160;48.580;7.756;2022-10-16T00:16:43;3.30;;;1.10;;
53271;SDS011;39160;48.580;7.756;2022-10-16T00:21:37;2.17;;;1.20;;
53271;SDS011;39160;48.580;7.756;2022-10-16T00:26:32;3.25;;;1.17;;
53271;SDS011;39160;48.580;7.756;2022-10-16T00:31:24;2.13;;;1.10;;
53271;SDS011;39160;48.580;7.756;2022-10-16T00:36:16;1.45;;;1.05;;
53271;SDS011;39160;48.580;7.756;2022-10-16T00:41:17;1.88;;;1.00;;
53271;SDS011;39160;48.580;7.756;2022-10-16T00:46:21;1.65;;;0.90;;
53271;SDS011;39160;48.580;7.756;2022-10-16T00:51:18;3.53;;;1.88;;
53271;SDS011;39160;48.580;7.756;2022-10-16T00:56:11;2.85;;;1.63;;
53271;SDS011;39160;48.580;7.756;2022-10-16T01:01:02;2.95;;;1.50;;
53271;SDS011;39160;48.580;7.756;2022-10-16T01:06:05;7.60;;;1.92;;
53271;SDS011;39160;48.580;7.756;2022-10-16T01:11:11;2.03;;;1.10;;
53271;SDS011;39160;48.580;7.756;2022-10-16T01:21:27;2.50;;;1.58;;
53271;SDS011;39160;48.580;7.756;2022-10-16T01:31:25;4.93;;;2.38;;
53271;SDS011;39160;48.580;7.756;2022-10-16T01:36:21;3.03;;;1.85;;
53271;SDS011;39160;48.580;7.756;2022-10-16T01:41:31;5.07;;;1.58;;
53271;SDS011;39160;48.580;7.756;2022-10-16T01:51:17;2.33;;;1.70;;
53271;SDS011;39160;48.580;7.756;2022-10-16T01:56:11;2.65;;;1.52;;
53271;SDS011;39160;48.580;7.756;2022-10-16T02:01:03;2.83;;;1.70;;
53271;SDS011;39160;48.580;7.756;2022-10-16T02:05:56;1.88;;;1.30;;
53271;SDS011;39160;48.580;7.756;2022-10-16T02:10:48;3.30;;;1.63;;
53271;SDS011;39160;48.580;7.756;2022-10-16T02:15:39;1.45;;;1.20;;
53271;SDS011;39160;48.580;7.756;2022-10-16T02:20:32;2.17;;;1.58;;
53271;SDS011;39160;48.580;7.756;2022-10-16T02:25:31;2.42;;;1.33;;
53271;SDS011;39160;48.580;7.756;2022-10-16T02:35:26;1.95;;;1.45;;
53271;SDS011;39160;48.580;7.756;2022-10-16T02:40:18;3.28;;;1.10;;
53271;SDS011;39160;48.580;7.756;2022-10-16T02:45:10;3.05;;;1.38;;
53271;SDS011;39160;48.580;7.756;2022-10-16T02:50:01;4.78;;;1.40;;
53271;SDS011;39160;48.580;7.756;2022-10-16T02:54:52;1.50;;;1.20;;
53271;SDS011;39160;48.580;7.756;2022-10-16T02:59:43;2.45;;;1.40;;
53271;SDS011;39160;48.580;7.756;2022-10-16T03:04:34;1.90;;;1.08;;
53271;SDS011;39160;48.580;7.756;2022-10-16T03:09:25;2.28;;;1.10;;
53271;SDS011;39160;48.580;7.756;2022-10-16T03:14:15;1.60;;;1.17;;
53271;SDS011;39160;48.580;7.756;2022-10-16T03:19:06;1.52;;;1.10;;
53271;SDS011;39160;48.580;7.756;2022-10-16T03:23:56;2.90;;;1.40;;
53271;SDS011;39160;48.580;7.756;2022-10-16T03:28:47;3.20;;;1.23;;
53271;SDS011;39160;48.580;7.756;2022-10-16T03:33:38;3.53;;;1.40;;
53271;SDS011;39160;48.580;7.756;2022-10-16T03:38:28;3.33;;;1.60;;
53271;SDS011;39160;48.580;7.756;2022-10-16T03:43:19;2.53;;;1.90;;
53271;SDS011;39160;48.580;7.756;2022-10-16T03:48:10;2.03;;;1.30;;
53271;SDS011;39160;48.580;7.756;2022-10-16T03:53:01;2.17;;;1.05;;
53271;SDS011;39160;48.580;7.756;2022-10-16T03:57:52;3.35;;;1.10;;
53271;SDS011;39160;48.580;7.756;2022-10-16T04:02:42;2.28;;;1.00;;
53271;SDS011;39160;48.580;7.756;2022-10-16T04:07:33;2.70;;;1.60;;
53271;SDS011;39160;48.580;7.756;2022-10-16T04:12:24;5.63;;;2.20;;
53271;SDS011;39160;48.580;7.756;2022-10-16T04:17:15;2.42;;;1.23;;
53271;SDS011;39160;48.580;7.756;2022-10-16T04:22:06;1.50;;;1.30;;
53271;SDS011;39160;48.580;7.756;2022-10-16T04:26:57;2.92;;;1.85;;
53271;SDS011;39160;48.580;7.756;2022-10-16T04:31:47;3.47;;;1.60;;
53271;SDS011;39160;48.580;7.756;2022-10-16T04:36:38;4.47;;;1.17;;
53271;SDS011;39160;48.580;7.756;2022-10-16T04:41:29;1.77;;;1.15;;
53271;SDS011;39160;48.580;7.756;2022-10-16T04:46:19;1.63;;;1.38;;
53271;SDS011;39160;48.580;7.756;2022-10-16T04:51:10;3.63;;;1.58;;
53271;SDS011;39160;48.580;7.756;2022-10-16T04:56:01;2.78;;;1.27;;
53271;SDS011;39160;48.580;7.756;2022-10-16T05:00:52;10.13;;;1.48;;
53271;SDS011;39160;48.580;7.756;2022-10-16T05:05:43;8.27;;;1.88;;
53271;SDS011;39160;48.580;7.756;2022-10-16T05:10:34;2.55;;;1.10;;
53271;SDS011;39160;48.580;7.756;2022-10-16T05:15:25;3.95;;;1.92;;
53271;SDS011;39160;48.580;7.756;2022-10-16T05:20:16;3.55;;;1.80;;
53271;SDS011;39160;48.580;7.756;2022-10-16T05:25:06;4.05;;;1.70;;
53271;SDS011;39160;48.580;7.756;2022-10-16T05:29:57;1.45;;;1.10;;
53271;SDS011;39160;48.580;7.756;2022-10-16T05:34:48;2.97;;;1.70;;
53271;SDS011;39160;48.580;7.756;2022-10-16T05:39:38;2.25;;;1.42;;
53271;SDS011;39160;48.580;7.756;2022-10-16T05:44:29;4.18;;;1.50;;
53271;SDS011;39160;48.580;7.756;2022-10-16T05:49:20;1.98;;;1.77;;
53271;SDS011;39160;48.580;7.756;2022-10-16T05:54:11;6.72;;;1.48;;
53271;SDS011;39160;48.580;7.756;2022-10-16T05:59:02;2.65;;;1.77;;
53271;SDS011;39160;48.580;7.756;2022-10-16T06:03:54;1.63;;;1.17;;
53271;SDS011;39160;48.580;7.756;2022-10-16T06:08:44;1.88;;;1.40;;
53271;SDS011;39160;48.580;7.756;2022-10-16T06:13:36;3.92;;;1.63;;
53271;SDS011;39160;48.580;7.756;2022-10-16T06:18:27;2.35;;;1.23;;
53271;SDS011;39160;48.580;7.756;2022-10-16T06:23:18;2.10;;;1.23;;
53271;SDS011;39160;48.580;7.756;2022-10-16T06:28:09;1.50;;;1.13;;
53271;SDS011;39160;48.580;7.756;2022-10-16T06:33:00;2.30;;;1.65;;
53271;SDS011;39160;48.580;7.756;2022-10-16T06:37:52;2.33;;;1.45;;
53271;SDS011;39160;48.580;7.756;2022-10-16T06:42:43;2.38;;;1.33;;
53271;SDS011;39160;48.580;7.756;2022-10-16T06:47:33;5.43;;;1.45;;
53271;SDS011;39160;48.580;7.756;2022-10-16T06:52:24;2.25;;;1.70;;
53271;SDS011;39160;48.580;7.756;2022-10-16T06:57:17;4.90;;;1.40;;
53271;SDS011;39160;48.580;7.756;2022-10-16T07:02:08;3.42;;;1.83;;
53271;SDS011;39160;48.580;7.756;2022-10-16T07:07:00;4.63;;;1.42;;
53271;SDS011;39160;48.580;7.756;2022-10-16T07:11:50;2.95;;;1.40;;
53271;SDS011;39160;48.580;7.756;2022-10-16T07:16:41;2.42;;;1.30;;
53271;SDS011;39160;48.580;7.756;2022-10-16T07:21:33;4.57;;;1.45;;
53271;SDS011;39160;48.580;7.756;2022-10-16T07:26:28;4.05;;;1.58;;
53271;SDS011;39160;48.580;7.756;2022-10-16T07:31:20;1.90;;;1.00;;
53271;SDS011;39160;48.580;7.756;2022-10-16T07:36:11;2.30;;;1.67;;
53271;SDS011;39160;48.580;7.756;2022-10-16T07:41:04;4.85;;;2.15;;
53271;SDS011;39160;48.580;7.756;2022-10-16T07:45:56;4.25;;;1.60;;
53271;SDS011;39160;48.580;7.756;2022-10-16T07:50:47;7.97;;;3.75;;
53271;SDS011;39160;48.580;7.756;2022-10-16T07:55:38;3.90;;;2.05;;
53271;SDS011;39160;48.580;7.756;2022-10-16T08:00:28;2.72;;;1.67;;
53271;SDS011;39160;48.580;7.756;2022-10-16T08:05:19;2.58;;;1.92;;
53271;SDS011;39160;48.580;7.756;2022-10-16T08:10:14;2.70;;;1.45;;
53271;SDS011;39160;48.580;7.756;2022-10-16T08:15:10;2.17;;;1.20;;
53271;SDS011;39160;48.580;7.756;2022-10-16T08:20:02;3.58;;;1.38;;
53271;SDS011;39160;48.580;7.756;2022-10-16T08:24:53;2.00;;;1.48;;
53271;SDS011;39160;48.580;7.756;2022-10-16T08:29:43;1.75;;;1.20;;
53271;SDS011;39160;48.580;7.756;2022-10-16T08:34:34;2.95;;;1.70;;
53271;SDS011;39160;48.580;7.756;2022-10-16T08:39:24;3.13;;;1.25;;
53271;SDS011;39160;48.580;7.756;2022-10-16T08:49:49;1.45;;;1.10;;
53271;SDS011;39160;48.580;7.756;2022-10-16T08:54:50;3.22;;;1.20;;
53271;SDS011;39160;48.580;7.756;2022-10-16T08:59:44;2.38;;;1.33;;
53271;SDS011;39160;48.580;7.756;2022-10-16T09:14:52;5.25;;;1.38;;
53271;SDS011;39160;48.580;7.756;2022-10-16T09:19:52;1.45;;;0.90;;
53271;SDS011;39160;48.580;7.756;2022-10-16T09:25:10;2.28;;;1.00;;
53271;SDS011;39160;48.580;7.756;2022-10-16T09:30:13;1.73;;;0.90;;
53271;SDS011;39160;48.580;7.756;2022-10-16T09:35:09;2.60;;;1.55;;
53271;SDS011;39160;48.580;7.756;2022-10-16T09:40:51;1.42;;;1.00;;
53271;SDS011;39160;48.580;7.756;2022-10-16T09:45:25;1.75;;;1.20;;
53271;SDS011;39160;48.580;7.756;2022-10-16T09:50:20;2.50;;;1.10;;
53271;SDS011;39160;48.580;7.756;2022-10-16T09:55:17;1.60;;;1.10;;
53271;SDS011;39160;48.580;7.756;2022-10-16T10:00:08;1.92;;;1.15;;
53271;SDS011;39160;48.580;7.756;2022-10-16T10:04:59;1.92;;;1.50;;
53271;SDS011;39160;48.580;7.756;2022-10-16T10:09:51;4.60;;;1.67;;
53271;SDS011;39160;48.580;7.756;2022-10-16T10:14:46;1.95;;;1.40;;
53271;SDS011;39160;48.580;7.756;2022-10-16T10:24:30;2.80;;;1.70;;
53271;SDS011;39160;48.580;7.756;2022-10-16T10:29:26;2.67;;;1.10;;
53271;SDS011;39160;48.580;7.756;2022-10-16T10:39:36;4.38;;;1.70;;
53271;SDS011;39160;48.580;7.756;2022-10-16T10:55:06;2.50;;;1.25;;
53271;SDS011;39160;48.580;7.756;2022-10-16T11:10:21;2.15;;;1.48;;
53271;SDS011;39160;48.580;7.756;2022-10-16T11:15:28;3.55;;;2.00;;
53271;SDS011;39160;48.580;7.756;2022-10-16T11:20:23;3.35;;;1.92;;
53271;SDS011;39160;48.580;7.756;2022-10-16T11:25:37;2.40;;;1.52;;
53271;SDS011;39160;48.580;7.756;2022-10-16T11:30:30;7.18;;;1.73;;
53271;SDS011;39160;48.580;7.756;2022-10-16T11:35:25;4.35;;;1.75;;
53271;SDS011;39160;48.580;7.756;2022-10-16T11:40:37;4.35;;;1.88;;
53271;SDS011;39160;48.580;7.756;2022-10-16T11:45:38;3.23;;;1.40;;
53271;SDS011;39160;48.580;7.756;2022-10-16T11:50:52;4.40;;;1.35;;
53271;SDS011;39160;48.580;7.756;2022-10-16T11:55:46;7.90;;;2.17;;
53271;SDS011;39160;48.580;7.756;2022-10-16T12:00:39;5.25;;;1.40;;
53271;SDS011;39160;48.580;7.756;2022-10-16T12:10:53;4.68;;;1.92;;
53271;SDS011;39160;48.580;7.756;2022-10-16T12:15:45;3.17;;;1.45;;
53271;SDS011;39160;48.580;7.756;2022-10-16T12:20:35;5.53;;;1.50;;
53271;SDS011;39160;48.580;7.756;2022-10-16T12:25:38;2.70;;;1.23;;
53271;SDS011;39160;48.580;7.756;2022-10-16T12:30:36;3.00;;;1.42;;
53271;SDS011;39160;48.580;7.756;2022-10-16T12:35:28;3.17;;;1.52;;
53271;SDS011;39160;48.580;7.756;2022-10-16T12:45:24;2.65;;;1.30;;
53271;SDS011;39160;48.580;7.756;2022-10-16T12:50:28;2.50;;;1.40;;
53271;SDS011;39160;48.580;7.756;2022-10-16T12:55:21;2.50;;;1.50;;
53271;SDS011;39160;48.580;7.756;2022-10-16T13:00:17;2.63;;;1.30;;
53271;SDS011;39160;48.580;7.756;2022-10-16T13:10:40;3.53;;;1.55;;
53271;SDS011;39160;48.580;7.756;2022-10-16T13:31:18;2.85;;;1.75;;
53271;SDS011;39160;48.580;7.756;2022-10-16T13:41:17;6.43;;;1.95;;
53271;SDS011;39160;48.580;7.756;2022-10-16T13:46:12;2.25;;;1.20;;
53271;SDS011;39160;48.580;7.756;2022-10-16T13:51:06;2.47;;;1.65;;
53271;SDS011;39160;48.580;7.756;2022-10-16T13:56:03;2.20;;;1.40;;
53271;SDS011;39160;48.580;7.756;2022-10-16T14:00:59;3.63;;;1.60;;
53271;SDS011;39160;48.580;7.756;2022-10-16T14:05:52;4.32;;;1.90;;
53271;SDS011;39160;48.580;7.756;2022-10-16T14:10:49;4.70;;;1.55;;
53271;SDS011;39160;48.580;7.756;2022-10-16T14:15:45;3.58;;;1.73;;
53271;SDS011;39160;48.580;7.756;2022-10-16T14:20:38;2.08;;;1.80;;
53271;SDS011;39160;48.580;7.756;2022-10-16T14:25:30;2.55;;;1.35;;
53271;SDS011;39160;48.580;7.756;2022-10-16T14:30:22;2.97;;;1.35;;
53271;SDS011;39160;48.580;7.756;2022-10-16T14:40:35;4.30;;;2.17;;
53271;SDS011;39160;48.580;7.756;2022-10-16T14:45:28;3.13;;;1.70;;
53271;SDS011;39160;48.580;7.756;2022-10-16T14:50:22;7.20;;;1.30;;
53271;SDS011;39160;48.580;7.756;2022-10-16T14:55:13;2.38;;;1.58;;
53271;SDS011;39160;48.580;7.756;2022-10-16T15:00:37;2.33;;;1.88;;
53271;SDS011;39160;48.580;7.756;2022-10-16T15:05:22;3.85;;;1.58;;
53271;SDS011;39160;48.580;7.756;2022-10-16T15:10:17;4.10;;;2.17;;
53271;SDS011;39160;48.580;7.756;2022-10-16T15:15:54;3.63;;;2.83;;
53271;SDS011;39160;48.580;7.756;2022-10-16T15:20:24;2.67;;;1.75;;
53271;SDS011;39160;48.580;7.756;2022-10-16T15:30:22;2.70;;;1.75;;
53271;SDS011;39160;48.580;7.756;2022-10-16T15:35:13;5.07;;;2.20;;
53271;SDS011;39160;48.580;7.756;2022-10-16T15:40:03;12.18;;;7.50;;
53271;SDS011;39160;48.580;7.756;2022-10-16T15:44:54;10.23;;;5.55;;
53271;SDS011;39160;48.580;7.756;2022-10-16T15:49:45;4.70;;;3.20;;
53271;SDS011;39160;48.580;7.756;2022-10-16T15:54:36;9.70;;;4.90;;
53271;SDS011;39160;48.580;7.756;2022-10-16T15:59:26;6.45;;;3.30;;
53271;SDS011;39160;48.580;7.756;2022-10-16T16:04:17;8.57;;;4.13;;
53271;SDS011;39160;48.580;7.756;2022-10-16T16:09:08;17.70;;;10.60;;
53271;SDS011;39160;48.580;7.756;2022-10-16T16:13:58;66.45;;;39.17;;
53271;SDS011;39160;48.580;7.756;2022-10-16T16:18:50;14.68;;;9.82;;
53271;SDS011;39160;48.580;7.756;2022-10-16T16:23:43;21.08;;;10.25;;
53271;SDS011;39160;48.580;7.756;2022-10-16T16:28:33;15.98;;;8.60;;
53271;SDS011;39160;48.580;7.756;2022-10-16T16:33:24;8.02;;;5.25;;
53271;SDS011;39160;48.580;7.756;2022-10-16T16:38:15;11.77;;;5.22;;
53271;SDS011;39160;48.580;7.756;2022-10-16T16:43:06;14.63;;;7.20;;
53271;SDS011;39160;48.580;7.756;2022-10-16T16:47:57;10.20;;;6.35;;
53271;SDS011;39160;48.580;7.756;2022-10-16T16:52:47;11.18;;;6.22;;
53271;SDS011;39160;48.580;7.756;2022-10-16T16:57:38;12.52;;;7.60;;
53271;SDS011;39160;48.580;7.756;2022-10-16T17:02:29;16.80;;;9.00;;
53271;SDS011;39160;48.580;7.756;2022-10-16T17:07:19;8.32;;;5.57;;
53271;SDS011;39160;48.580;7.756;2022-10-16T17:12:10;9.60;;;5.53;;
53271;SDS011;39160;48.580;7.756;2022-10-16T17:17:01;8.75;;;5.22;;
53271;SDS011;39160;48.580;7.756;2022-10-16T17:21:51;11.65;;;7.90;;
53271;SDS011;39160;48.580;7.756;2022-10-16T17:26:42;16.45;;;7.78;;
53271;SDS011;39160;48.580;7.756;2022-10-16T17:31:37;8.57;;;6.07;;
53271;SDS011;39160;48.580;7.756;2022-10-16T17:36:29;7.70;;;5.25;;
53271;SDS011;39160;48.580;7.756;2022-10-16T17:41:23;12.23;;;5.90;;
53271;SDS011;39160;48.580;7.756;2022-10-16T17:46:14;18.35;;;9.57;;
53271;SDS011;39160;48.580;7.756;2022-10-16T17:51:06;26.60;;;14.77;;
53271;SDS011;39160;48.580;7.756;2022-10-16T17:56:01;14.52;;;6.13;;
53271;SDS011;39160;48.580;7.756;2022-10-16T18:00:53;8.70;;;4.38;;
53271;SDS011;39160;48.580;7.756;2022-10-16T18:05:43;5.93;;;4.40;;
53271;SDS011;39160;48.580;7.756;2022-10-16T18:10:34;13.02;;;4.82;;
53271;SDS011;39160;48.580;7.756;2022-10-16T18:15:24;9.13;;;5.68;;
53271;SDS011;39160;48.580;7.756;2022-10-16T18:20:15;8.90;;;5.32;;
53271;SDS011;39160;48.580;7.756;2022-10-16T18:25:06;12.85;;;6.57;;
53271;SDS011;39160;48.580;7.756;2022-10-16T18:29:57;8.65;;;4.70;;
53271;SDS011;39160;48.580;7.756;2022-10-16T18:34:49;9.15;;;4.80;;
53271;SDS011;39160;48.580;7.756;2022-10-16T18:39:39;14.63;;;6.10;;
53271;SDS011;39160;48.580;7.756;2022-10-16T18:44:30;10.13;;;5.90;;
53271;SDS011;39160;48.580;7.756;2022-10-16T18:49:22;9.73;;;5.90;;
53271;SDS011;39160;48.580;7.756;2022-10-16T18:54:13;18.67;;;5.80;;
53271;SDS011;39160;48.580;7.756;2022-10-16T18:59:05;9.02;;;5.15;;
53271;SDS011;39160;48.580;7.756;2022-10-16T19:03:57;13.77;;;5.60;;
53271;SDS011;39160;48.580;7.756;2022-10-16T19:08:54;12.38;;;5.70;;
53271;SDS011;39160;48.580;7.756;2022-10-16T19:13:45;10.85;;;6.55;;
53271;SDS011;39160;48.580;7.756;2022-10-16T19:18:37;8.52;;;5.57;;
53271;SDS011;39160;48.580;7.756;2022-10-16T19:23:28;11.80;;;6.50;;
53271;SDS011;39160;48.580;7.756;2022-10-16T19:28:19;16.13;;;6.65;;
53271;SDS011;39160;48.580;7.756;2022-10-16T19:33:09;12.13;;;6.38;;
53271;SDS011;39160;48.580;7.756;2022-10-16T19:38:00;8.48;;;6.03;;
53271;SDS011;39160;48.580;7.756;2022-10-16T19:42:51;9.77;;;6.45;;
53271;SDS011;39160;48.580;7.756;2022-10-16T19:47:41;10.63;;;5.97;;
53271;SDS011;39160;48.580;7.756;2022-10-16T19:52:35;9.38;;;6.57;;
53271;SDS011;39160;48.580;7.756;2022-10-16T19:57:26;16.10;;;8.13;;
53271;SDS011;39160;48.580;7.756;2022-10-16T20:02:17;13.98;;;7.28;;
53271;SDS011;39160;48.580;7.756;2022-10-16T20:07:08;11.30;;;6.10;;
53271;SDS011;39160;48.580;7.756;2022-10-16T20:11:58;15.00;;;6.95;;
53271;SDS011;39160;48.580;7.756;2022-10-16T20:16:49;15.65;;;6.85;;
53271;SDS011;39160;48.580;7.756;2022-10-16T20:21:42;10.10;;;6.53;;
53271;SDS011;39160;48.580;7.756;2022-10-16T20:26:32;9.07;;;6.30;;
53271;SDS011;39160;48.580;7.756;2022-10-16T20:31:25;10.45;;;6.38;;
53271;SDS011;39160;48.580;7.756;2022-10-16T20:36:17;11.82;;;6.65;;
53271;SDS011;39160;48.580;7.756;2022-10-16T20:41:09;14.40;;;6.95;;
53271;SDS011;39160;48.580;7.756;2022-10-16T20:46:02;10.30;;;6.18;;
53271;SDS011;39160;48.580;7.756;2022-10-16T20:50:54;11.13;;;6.88;;
53271;SDS011;39160;48.580;7.756;2022-10-16T20:55:45;14.13;;;8.18;;
53271;SDS011;39160;48.580;7.756;2022-10-16T21:00:36;11.50;;;6.97;;
53271;SDS011;39160;48.580;7.756;2022-10-16T21:05:26;9.32;;;6.30;;
53271;SDS011;39160;48.580;7.756;2022-10-16T21:10:18;9.82;;;5.60;;
53271;SDS011;39160;48.580;7.756;2022-10-16T21:15:09;9.40;;;6.15;;
53271;SDS011;39160;48.580;7.756;2022-10-16T21:20:01;8.57;;;5.07;;
53271;SDS011;39160;48.580;7.756;2022-10-16T21:24:52;7.28;;;4.20;;
53271;SDS011;39160;48.580;7.756;2022-10-16T21:29:43;6.15;;;4.28;;
53271;SDS011;39160;48.580;7.756;2022-10-16T21:34:34;6.70;;;3.85;;
53271;SDS011;39160;48.580;7.756;2022-10-16T21:39:24;8.40;;;3.47;;
53271;SDS011;39160;48.580;7.756;2022-10-16T21:44:16;5.78;;;3.30;;
53271;SDS011;39160;48.580;7.756;2022-10-16T21:49:10;9.20;;;4.18;;
53271;SDS011;39160;48.580;7.756;2022-10-16T21:54:03;8.05;;;4.38;;
53271;SDS011;39160;48.580;7.756;2022-10-16T21:58:55;3.88;;;2.78;;
53271;SDS011;39160;48.580;7.756;2022-10-16T22:03:47;5.18;;;2.83;;
53271;SDS011;39160;48.580;7.756;2022-10-16T22:08:38;8.45;;;3.03;;
53271;SDS011;39160;48.580;7.756;2022-10-16T22:13:29;7.35;;;2.92;;
53271;SDS011;39160;48.580;7.756;2022-10-16T22:18:20;7.55;;;2.40;;
53271;SDS011;39160;48.580;7.756;2022-10-16T22:23:11;4.85;;;2.78;;
53271;SDS011;39160;48.580;7.756;2022-10-16T22:28:02;3.50;;;2.28;;
53271;SDS011;39160;48.580;7.756;2022-10-16T22:32:53;5.78;;;2.40;;
53271;SDS011;39160;48.580;7.756;2022-10-16T22:37:43;4.65;;;2.45;;
53271;SDS011;39160;48.580;7.756;2022-10-16T22:42:34;3.92;;;3.08;;
53271;SDS011;39160;48.580;7.756;2022-10-16T22:47:24;5.03;;;2.88;;
53271;SDS011;39160;48.580;7.756;2022-10-16T22:52:15;6.85;;;3.67;;
53271;SDS011;39160;48.580;7.756;2022-10-16T22:57:06;4.13;;;2.53;;
53271;SDS011;39160;48.580;7.756;2022-10-16T23:01:56;7.07;;;3.33;;
53271;SDS011;39160;48.580;7.756;2022-10-16T23:06:47;4.70;;;2.25;;
53271;SDS011;39160;48.580;7.756;2022-10-16T23:11:37;5.43;;;2.63;;
53271;SDS011;39160;48.580;7.756;2022-10-16T23:16:28;4.82;;;3.03;;
53271;SDS011;39160;48.580;7.756;2022-10-16T23:21:22;6.47;;;2.80;;
53271;SDS011;39160;48.580;7.756;2022-10-16T23:26:18;3.97;;;2.50;;
53271;SDS011;39160;48.580;7.756;2022-10-16T23:31:14;5.13;;;2.58;;
53271;SDS011;39160;48.580;7.756;2022-10-16T23:36:06;4.57;;;2.45;;
53271;SDS011;39160;48.580;7.756;2022-10-16T23:41:01;4.38;;;2.88;;
53271;SDS011;39160;48.580;7.756;2022-10-16T23:45:52;4.00;;;2.70;;
53271;SDS011;39160;48.580;7.756;2022-10-16T23:50:43;3.90;;;2.45;;
53271;SDS011;39160;48.580;7.756;2022-10-16T23:55:33;5.78;;;3.40;;
